createdAt,value
2024-02-19T00:01:26.873Z,8.13
2024-02-19T00:05:10.423Z,7.30
2024-02-19T00:08:52.638Z,7.82
2024-02-19T00:12:34.783Z,6.72
2024-02-19T00:16:17.178Z,7.18
2024-02-19T00:19:59.316Z,6.55
2024-02-19T00:23:41.344Z,7.30
2024-02-19T00:27:23.471Z,7.40
2024-02-19T00:31:05.586Z,6.38
2024-02-19T00:34:47.580Z,5.07
2024-02-19T00:38:29.822Z,5.75
2024-02-19T00:42:12.265Z,3.92
2024-02-19T00:45:54.264Z,3.75
2024-02-19T00:49:36.381Z,4.03
2024-02-19T00:53:18.477Z,3.42
2024-02-19T00:57:00.463Z,4.30
2024-02-19T01:00:42.494Z,6.00
2024-02-19T01:04:24.716Z,4.40
2024-02-19T01:08:06.999Z,4.72
2024-02-19T01:11:49.041Z,4.65
2024-02-19T01:15:30.988Z,4.50
2024-02-19T01:19:14.205Z,4.22
2024-02-19T01:22:56.447Z,4.07
2024-02-19T01:26:38.505Z,3.33
2024-02-19T01:30:20.501Z,3.30
2024-02-19T01:34:05.520Z,2.90
2024-02-19T01:37:47.576Z,2.90
2024-02-19T01:41:30.297Z,2.75
2024-02-19T01:45:27.704Z,2.40
2024-02-19T01:49:11.800Z,3.25
2024-02-19T01:52:55.592Z,3.70
2024-02-19T01:56:39.388Z,2.90
2024-02-19T02:00:21.706Z,3.30
2024-02-19T02:04:06.813Z,3.40
2024-02-19T02:07:49.605Z,3.20
2024-02-19T02:11:31.708Z,2.90
2024-02-19T02:15:13.751Z,3.20
2024-02-19T02:18:56.526Z,2.55
2024-02-19T02:22:39.911Z,2.42
2024-02-19T02:26:21.975Z,2.85
2024-02-19T02:30:05.018Z,3.22
2024-02-19T02:33:47.395Z,2.67
2024-02-19T02:37:29.549Z,2.92
2024-02-19T02:41:11.706Z,2.78
2024-02-19T02:44:53.872Z,3.13
2024-02-19T02:48:36.094Z,2.42
2024-02-19T02:52:18.360Z,2.75
2024-02-19T02:56:00.413Z,2.53
2024-02-19T02:59:42.396Z,2.50
2024-02-19T03:03:24.387Z,1.77
2024-02-19T03:07:06.514Z,1.88
2024-02-19T03:10:49.021Z,1.95
2024-02-19T03:14:31.201Z,2.58
2024-02-19T03:18:13.349Z,2.38
2024-02-19T03:21:56.500Z,1.77
2024-02-19T03:25:38.652Z,1.83
2024-02-19T03:29:20.633Z,2.45
2024-02-19T03:33:02.866Z,1.92
2024-02-19T03:36:49.875Z,2.15
2024-02-19T03:40:31.954Z,2.60
2024-02-19T03:44:13.962Z,2.25
2024-02-19T03:47:56.224Z,2.33
2024-02-19T03:51:38.443Z,2.53
2024-02-19T03:55:20.494Z,2.22
2024-02-19T03:59:03.297Z,1.83
2024-02-19T04:02:45.283Z,2.65
2024-02-19T04:06:27.284Z,2.28
2024-02-19T04:10:09.526Z,2.00
2024-02-19T04:13:51.633Z,1.73
2024-02-19T04:17:36.468Z,1.88
2024-02-19T04:21:18.604Z,2.00
2024-02-19T04:25:01.044Z,2.47
2024-02-19T04:28:42.992Z,2.00
2024-02-19T04:32:25.048Z,2.15
2024-02-19T04:36:08.435Z,2.28
2024-02-19T04:39:51.223Z,2.28
2024-02-19T04:43:33.318Z,2.50
2024-02-19T04:47:15.296Z,2.17
2024-02-19T04:50:57.257Z,2.25
2024-02-19T04:54:40.887Z,2.47
2024-02-19T04:58:23.118Z,1.75
2024-02-19T05:02:05.390Z,2.78
2024-02-19T05:05:47.522Z,2.08
2024-02-19T05:09:29.626Z,3.05
2024-02-19T05:13:11.620Z,2.47
2024-02-19T05:16:53.642Z,2.60
2024-02-19T05:20:36.734Z,2.75
2024-02-19T05:24:19.251Z,3.10
2024-02-19T05:28:02.300Z,1.98
2024-02-19T05:31:44.557Z,2.13
2024-02-19T05:35:26.770Z,2.03
2024-02-19T05:39:12.271Z,2.05
2024-02-19T05:42:54.446Z,2.88
2024-02-19T05:46:36.888Z,2.55
2024-02-19T05:50:19.942Z,2.85
2024-02-19T05:54:02.013Z,3.53
2024-02-19T05:57:44.140Z,1.92
2024-02-19T06:01:26.666Z,2.55
2024-02-19T06:05:10.056Z,2.60
2024-02-19T06:08:52.318Z,2.25
2024-02-19T06:12:34.523Z,1.80
2024-02-19T06:16:17.493Z,2.10
2024-02-19T06:19:59.713Z,2.10
2024-02-19T06:23:41.809Z,2.33
2024-02-19T06:27:23.797Z,2.38
2024-02-19T06:31:06.506Z,2.28
2024-02-19T06:34:48.768Z,2.38
2024-02-19T06:38:31.043Z,2.10
2024-02-19T06:42:13.326Z,2.38
2024-02-19T06:45:55.377Z,2.10
2024-02-19T06:49:37.584Z,2.67
2024-02-19T06:53:19.780Z,2.30
2024-02-19T06:57:01.847Z,2.25
2024-02-19T07:00:43.978Z,2.05
2024-02-19T07:04:26.071Z,2.15
2024-02-19T07:08:11.539Z,2.28
2024-02-19T07:11:53.543Z,2.17
2024-02-19T07:15:35.583Z,1.85
2024-02-19T07:19:17.615Z,2.45
2024-02-19T07:23:01.632Z,2.20
2024-02-19T07:26:43.663Z,2.30
2024-02-19T07:30:25.763Z,2.10
2024-02-19T07:34:09.185Z,2.55
2024-02-19T07:37:51.318Z,2.92
2024-02-19T07:41:33.398Z,3.25
2024-02-19T07:45:15.599Z,1.98
2024-02-19T07:48:57.765Z,2.10
2024-02-19T07:52:40.058Z,2.10
2024-02-19T07:56:22.108Z,2.45
2024-02-19T08:00:07.654Z,2.08
2024-02-19T08:03:49.941Z,2.17
2024-02-19T08:07:38.414Z,2.20
2024-02-19T08:11:21.485Z,2.47
2024-02-19T08:15:06.059Z,2.22
2024-02-19T08:18:48.269Z,2.17
2024-02-19T08:22:30.390Z,3.10
2024-02-19T08:26:12.404Z,2.30
2024-02-19T08:29:54.534Z,2.22
2024-02-19T08:33:37.041Z,2.63
2024-02-19T08:37:19.853Z,2.40
2024-02-19T08:41:02.861Z,1.33
2024-02-19T08:44:44.894Z,1.25
2024-02-19T08:48:26.970Z,1.00
2024-02-19T08:52:09.123Z,1.80
2024-02-19T08:55:51.161Z,1.30
2024-02-19T08:59:34.006Z,1.35
2024-02-19T09:03:16.080Z,1.00
2024-02-19T09:06:58.303Z,0.80
2024-02-19T09:10:40.457Z,0.60
2024-02-19T09:14:22.460Z,0.70
2024-02-19T09:18:04.975Z,0.40
2024-02-19T09:21:47.072Z,0.40
2024-02-19T09:25:29.194Z,0.80
2024-02-19T09:29:11.702Z,0.50
2024-02-19T09:32:53.731Z,0.52
2024-02-19T09:36:35.858Z,0.25
2024-02-19T09:40:21.567Z,0.30
2024-02-19T09:44:03.707Z,0.30
2024-02-19T09:47:46.596Z,0.55
2024-02-19T09:51:37.113Z,0.47
2024-02-19T09:55:23.279Z,0.30
2024-02-19T09:59:08.600Z,0.45
2024-02-19T10:02:52.163Z,0.40
2024-02-19T10:06:38.284Z,0.60
2024-02-19T10:10:20.616Z,0.70
2024-02-19T10:14:04.131Z,1.20
2024-02-19T10:17:46.176Z,1.50
2024-02-19T10:21:28.284Z,1.77
2024-02-19T10:25:13.365Z,1.80
2024-02-19T10:28:56.635Z,1.98
2024-02-19T10:32:38.875Z,1.70
2024-02-19T10:36:23.680Z,1.60
2024-02-19T10:40:11.102Z,1.52
2024-02-19T10:43:53.340Z,1.85
2024-02-19T10:47:35.968Z,1.80
2024-02-19T10:51:20.793Z,1.58
2024-02-19T10:55:10.647Z,1.95
2024-02-19T10:58:57.567Z,1.60
2024-02-19T11:02:40.135Z,1.38
2024-02-19T11:06:25.389Z,1.65
2024-02-19T11:10:08.211Z,1.50
2024-02-19T11:13:50.351Z,1.70
2024-02-19T11:17:33.057Z,1.65
2024-02-19T11:21:16.567Z,1.63
2024-02-19T11:24:59.063Z,2.10
2024-02-19T11:28:41.118Z,1.40
2024-02-19T11:32:23.972Z,1.88
2024-02-19T11:36:06.175Z,2.10
2024-02-19T11:39:48.341Z,2.05
2024-02-19T11:43:30.757Z,2.65
2024-02-19T11:47:15.281Z,2.60
2024-02-19T11:50:59.211Z,1.90
2024-02-19T11:54:42.192Z,1.50
2024-02-19T11:58:28.798Z,1.70
2024-02-19T12:05:54.690Z,1.70
2024-02-19T12:09:36.811Z,2.08
2024-02-19T12:13:20.631Z,1.98
2024-02-19T12:17:07.069Z,1.48
2024-02-19T12:24:31.715Z,1.77
2024-02-19T12:28:13.900Z,1.80
2024-02-19T12:31:55.910Z,2.17
2024-02-19T12:35:40.602Z,1.95
2024-02-19T12:39:26.979Z,2.17
2024-02-19T12:43:09.387Z,2.45
2024-02-19T12:46:51.619Z,2.30
2024-02-19T12:50:34.308Z,2.20
2024-02-19T12:54:19.207Z,2.88
2024-02-19T12:58:01.355Z,2.35
2024-02-19T13:01:43.586Z,2.95
2024-02-19T13:05:28.501Z,2.28
2024-02-19T13:09:12.153Z,2.47
2024-02-19T13:12:54.317Z,2.38
2024-02-19T13:16:36.683Z,2.20
2024-02-19T13:20:18.795Z,2.38
2024-02-19T13:24:00.940Z,2.30
2024-02-19T13:27:43.272Z,2.13
2024-02-19T13:31:25.465Z,2.40
2024-02-19T13:35:11.592Z,2.30
2024-02-19T13:38:53.765Z,2.80
2024-02-19T13:42:35.744Z,2.50
2024-02-19T13:46:18.570Z,2.25
2024-02-19T13:50:00.982Z,2.90
2024-02-19T13:53:43.111Z,2.75
2024-02-19T13:57:25.531Z,2.45
2024-02-19T14:01:07.676Z,2.35
2024-02-19T14:04:49.925Z,2.65
2024-02-19T14:08:32.218Z,2.58
2024-02-19T14:12:14.176Z,2.90
2024-02-19T14:15:56.312Z,2.90
2024-02-19T14:19:38.839Z,2.83
2024-02-19T14:23:22.339Z,2.70
2024-02-19T14:27:05.729Z,3.00
2024-02-19T14:30:50.001Z,3.15
2024-02-19T14:34:34.251Z,2.78
2024-02-19T14:38:16.557Z,2.78
2024-02-19T14:41:58.826Z,2.42
2024-02-19T14:45:40.901Z,3.20
2024-02-19T14:49:22.990Z,3.50
2024-02-19T14:53:05.581Z,3.40
2024-02-19T14:56:47.620Z,2.58
2024-02-19T15:00:32.366Z,2.92
2024-02-19T15:04:15.410Z,3.30
2024-02-19T15:07:57.639Z,3.08
2024-02-19T15:11:39.714Z,3.53
2024-02-19T15:15:22.355Z,2.92
2024-02-19T15:19:05.681Z,2.75
2024-02-19T15:22:50.908Z,3.00
2024-02-19T15:26:33.292Z,2.97
2024-02-19T15:30:16.513Z,2.15
2024-02-19T15:34:00.080Z,2.58
2024-02-19T15:37:42.408Z,2.42
2024-02-19T15:41:31.150Z,2.42
2024-02-19T15:45:13.322Z,3.22
2024-02-19T15:48:55.477Z,3.25
2024-02-19T15:52:38.025Z,3.08
2024-02-19T15:56:21.071Z,3.33
2024-02-19T16:00:07.578Z,2.90
2024-02-19T16:03:51.422Z,3.67
2024-02-19T16:07:33.570Z,3.50
2024-02-19T16:11:15.730Z,2.97
2024-02-19T16:14:57.825Z,3.65
2024-02-19T16:18:40.601Z,3.40
2024-02-19T16:22:22.867Z,3.63
2024-02-19T16:26:07.051Z,3.80
2024-02-19T16:29:49.245Z,3.85
2024-02-19T16:33:32.117Z,3.38
2024-02-19T16:37:14.671Z,4.38
2024-02-19T16:40:57.506Z,3.30
2024-02-19T16:44:40.688Z,4.15
2024-02-19T16:48:22.971Z,3.15
2024-02-19T16:52:05.493Z,4.25
2024-02-19T16:55:47.516Z,3.65
2024-02-19T16:59:29.526Z,4.28
2024-02-19T17:03:11.600Z,3.65
2024-02-19T17:06:55.154Z,4.68
2024-02-19T17:10:37.730Z,4.30
2024-02-19T17:14:19.773Z,3.67
2024-02-19T17:18:02.052Z,3.50
2024-02-19T17:21:44.109Z,3.38
2024-02-19T17:25:26.868Z,3.55
2024-02-19T17:29:08.973Z,3.97
2024-02-19T17:32:51.491Z,4.40
2024-02-19T17:36:33.781Z,4.68
2024-02-19T17:40:16.351Z,3.97
2024-02-19T17:43:58.927Z,3.95
2024-02-19T17:47:41.136Z,4.80
2024-02-19T17:51:23.329Z,4.20
2024-02-19T17:55:07.144Z,5.55
2024-02-19T17:58:49.231Z,4.10
2024-02-19T18:02:31.244Z,4.53
2024-02-19T18:06:15.472Z,4.30
2024-02-19T18:09:58.317Z,4.03
2024-02-19T18:13:40.534Z,3.47
2024-02-19T18:17:22.870Z,5.15
2024-02-19T18:21:09.594Z,5.30
2024-02-19T18:28:37.086Z,4.55
2024-02-19T18:32:20.894Z,4.18
2024-02-19T18:36:05.099Z,4.32
2024-02-19T18:39:47.083Z,4.60
2024-02-19T18:43:29.466Z,4.25
2024-02-19T18:47:12.064Z,4.13
2024-02-19T18:50:55.696Z,3.83
2024-02-19T18:54:37.879Z,3.47
2024-02-19T18:58:21.738Z,3.92
2024-02-19T19:02:05.553Z,4.00
2024-02-19T19:05:48.375Z,4.53
2024-02-19T19:09:30.514Z,3.55
2024-02-19T19:13:13.469Z,3.97
2024-02-19T19:16:55.546Z,5.10
2024-02-19T19:20:40.796Z,4.90
2024-02-19T19:24:23.517Z,5.07
2024-02-19T19:28:05.821Z,4.47
2024-02-19T19:31:48.768Z,4.40
2024-02-19T19:35:32.558Z,4.63
2024-02-19T19:39:15.119Z,5.10
2024-02-19T19:42:57.194Z,5.05
2024-02-19T19:46:39.904Z,4.90
2024-02-19T19:50:21.988Z,5.78
2024-02-19T19:54:04.181Z,5.10
2024-02-19T19:57:55.966Z,4.57
2024-02-19T20:01:38.235Z,4.45
2024-02-19T20:05:20.558Z,5.95
2024-02-19T20:09:04.228Z,4.93
2024-02-19T20:12:47.248Z,4.80
2024-02-19T20:16:29.419Z,3.85
2024-02-19T20:20:11.884Z,4.20
2024-02-19T20:23:54.827Z,3.83
2024-02-19T20:27:37.012Z,4.28
2024-02-19T20:31:19.200Z,4.65
2024-02-19T20:35:01.394Z,4.07
2024-02-19T20:38:43.489Z,4.13
2024-02-19T20:42:25.474Z,4.78
2024-02-19T20:46:07.514Z,4.88
2024-02-19T20:49:49.635Z,4.85
2024-02-19T20:53:31.784Z,4.00
2024-02-19T20:57:13.964Z,4.10
2024-02-19T21:00:56.132Z,4.28
2024-02-19T21:04:38.310Z,3.67
2024-02-19T21:08:21.397Z,3.97
2024-02-19T21:12:03.455Z,4.60
2024-02-19T21:15:46.417Z,4.25
2024-02-19T21:19:28.607Z,4.45
2024-02-19T21:23:10.806Z,3.90
2024-02-19T21:26:53.825Z,4.03
2024-02-19T21:30:36.683Z,3.42
2024-02-19T21:34:18.697Z,3.95
2024-02-19T21:38:01.321Z,4.38
2024-02-19T21:41:45.029Z,4.18
2024-02-19T21:45:27.082Z,4.47
2024-02-19T21:49:09.338Z,3.85
2024-02-19T21:52:51.868Z,3.35
2024-02-19T21:56:33.824Z,4.22
2024-02-19T22:00:16.709Z,4.10
2024-02-19T22:03:58.807Z,3.53
2024-02-19T22:07:42.338Z,3.83
2024-02-19T22:11:25.670Z,4.50
2024-02-19T22:15:08.155Z,3.45
2024-02-19T22:18:50.629Z,4.20
2024-02-19T22:22:32.960Z,4.40
2024-02-19T22:26:14.996Z,4.90
2024-02-19T22:29:57.113Z,4.80
2024-02-19T22:33:39.453Z,4.53
2024-02-19T22:37:21.527Z,4.32
2024-02-19T22:41:03.688Z,3.60
2024-02-19T22:44:45.750Z,3.72
2024-02-19T22:48:27.847Z,4.55
2024-02-19T22:52:10.031Z,3.90
2024-02-19T22:55:52.068Z,3.83
2024-02-19T22:59:34.296Z,3.95
2024-02-19T23:03:16.366Z,3.92
2024-02-19T23:06:58.849Z,4.10
2024-02-19T23:10:40.996Z,3.60
2024-02-19T23:14:23.039Z,3.97
2024-02-19T23:18:05.721Z,4.30
2024-02-19T23:21:47.941Z,3.25
2024-02-19T23:25:30.251Z,3.42
2024-02-19T23:29:12.445Z,4.22
2024-02-19T23:32:56.806Z,3.70
2024-02-19T23:36:41.171Z,4.03
2024-02-19T23:40:23.306Z,3.42
2024-02-19T23:44:05.465Z,3.63
2024-02-19T23:47:47.447Z,4.63
2024-02-19T23:51:29.481Z,4.30
2024-02-19T23:55:13.943Z,3.20
2024-02-19T23:58:56.169Z,4.47
